createdAt,value
2019-03-22T00:01:13.100Z,30.97
2019-03-22T00:03:44.029Z,31.93
2019-03-22T00:06:14.789Z,32.27
2019-03-22T00:08:45.601Z,31.70
2019-03-22T00:11:16.469Z,34.10
2019-03-22T00:13:47.565Z,35.67
2019-03-22T00:16:18.319Z,32.90
2019-03-22T00:18:49.091Z,35.43
2019-03-22T00:21:19.892Z,37.23
2019-03-22T00:23:50.771Z,33.93
2019-03-22T00:26:21.562Z,33.67
2019-03-22T00:28:52.519Z,35.00
2019-03-22T00:31:23.393Z,30.80
2019-03-22T00:33:54.343Z,31.83
2019-03-22T00:36:25.110Z,29.60
2019-03-22T00:38:55.927Z,32.73
2019-03-22T00:41:26.641Z,32.40
2019-03-22T00:43:57.508Z,35.70
2019-03-22T00:46:28.266Z,32.67
2019-03-22T00:48:59.050Z,34.47
2019-03-22T00:51:29.898Z,31.87
2019-03-22T00:54:00.796Z,31.80
2019-03-22T00:56:31.734Z,37.40
2019-03-22T00:59:02.679Z,26.87
2019-03-22T01:01:33.484Z,28.73
2019-03-22T01:04:04.295Z,28.53
2019-03-22T01:06:35.098Z,31.23
2019-03-22T01:09:07.191Z,31.23
2019-03-22T01:11:38.023Z,33.33
2019-03-22T01:14:08.864Z,36.83
2019-03-22T01:16:39.658Z,33.83
2019-03-22T01:19:10.437Z,36.33
2019-03-22T01:21:41.199Z,30.90
2019-03-22T01:24:12.070Z,38.80
2019-03-22T01:26:43.942Z,40.70
2019-03-22T01:29:14.748Z,39.70
2019-03-22T01:31:45.484Z,36.00
2019-03-22T01:34:16.369Z,32.90
2019-03-22T01:36:47.126Z,39.17
2019-03-22T01:39:18.126Z,36.80
2019-03-22T01:41:48.866Z,37.87
2019-03-22T01:44:19.847Z,37.63
2019-03-22T01:46:50.654Z,38.37
2019-03-22T01:49:21.406Z,36.87
2019-03-22T01:51:52.146Z,38.97
2019-03-22T01:54:23.036Z,38.40
2019-03-22T01:56:54.318Z,37.90
2019-03-22T01:59:25.138Z,36.03
2019-03-22T02:01:55.956Z,35.87
2019-03-22T02:04:26.878Z,35.47
2019-03-22T02:06:57.656Z,34.03
2019-03-22T02:09:28.518Z,31.67
2019-03-22T02:11:59.298Z,34.60
2019-03-22T02:14:30.168Z,35.83
2019-03-22T02:17:00.936Z,33.13
2019-03-22T02:19:31.779Z,37.37
2019-03-22T02:22:02.586Z,38.40
2019-03-22T02:24:33.448Z,35.87
2019-03-22T02:27:04.359Z,28.03
2019-03-22T02:29:35.167Z,31.87
2019-03-22T02:32:05.984Z,32.83
2019-03-22T02:34:36.844Z,28.47
2019-03-22T02:37:07.609Z,28.83
2019-03-22T02:39:38.510Z,34.47
2019-03-22T02:42:09.320Z,33.87
2019-03-22T02:44:40.392Z,31.57
2019-03-22T02:47:12.249Z,38.43
2019-03-22T02:49:43.044Z,36.83
2019-03-22T02:52:13.795Z,36.10
2019-03-22T02:54:44.645Z,38.50
2019-03-22T02:57:15.818Z,37.10
2019-03-22T02:59:47.721Z,39.17
2019-03-22T03:02:18.473Z,40.30
2019-03-22T03:04:49.329Z,40.17
2019-03-22T03:07:20.081Z,38.50
2019-03-22T03:09:50.893Z,39.83
2019-03-22T03:12:21.630Z,37.90
2019-03-22T03:14:52.520Z,39.30
2019-03-22T03:17:23.293Z,42.00
2019-03-22T03:19:54.050Z,35.97
2019-03-22T03:22:24.849Z,33.97
2019-03-22T03:24:55.743Z,34.97
2019-03-22T03:27:26.562Z,36.20
2019-03-22T03:29:57.535Z,39.03
2019-03-22T03:32:28.383Z,36.20
2019-03-22T03:34:59.199Z,35.87
2019-03-22T03:37:29.958Z,41.63
2019-03-22T03:40:00.751Z,40.13
2019-03-22T03:42:31.892Z,49.13
2019-03-22T03:45:02.810Z,48.83
2019-03-22T03:47:33.661Z,45.47
2019-03-22T03:50:06.453Z,42.73
2019-03-22T03:52:39.465Z,36.63
2019-03-22T03:55:09.821Z,41.13
2019-03-22T03:57:40.766Z,34.53
2019-03-22T04:00:12.054Z,36.83
2019-03-22T04:02:42.841Z,35.37
2019-03-22T04:05:14.754Z,43.73
2019-03-22T04:07:45.664Z,44.83
2019-03-22T04:10:16.508Z,40.13
2019-03-22T04:12:47.292Z,40.47
2019-03-22T04:15:18.484Z,36.93
2019-03-22T04:17:49.384Z,40.00
2019-03-22T04:20:20.167Z,46.37
2019-03-22T04:22:51.052Z,51.67
2019-03-22T04:25:22.055Z,44.27
2019-03-22T04:27:52.812Z,43.87
2019-03-22T04:30:23.697Z,38.57
2019-03-22T04:32:54.461Z,39.67
2019-03-22T04:35:25.309Z,35.73
2019-03-22T04:37:56.064Z,38.60
2019-03-22T04:40:28.074Z,45.17
2019-03-22T04:42:58.882Z,37.77
2019-03-22T04:45:33.749Z,35.60
2019-03-22T04:48:19.348Z,44.30
2019-03-22T04:50:52.723Z,41.23
2019-03-22T04:53:26.444Z,43.17
2019-03-22T04:56:02.279Z,40.37
2019-03-22T04:58:34.431Z,37.73
2019-03-22T05:01:05.343Z,44.33
2019-03-22T05:03:37.127Z,41.83
2019-03-22T05:06:10.011Z,36.70
2019-03-22T05:08:43.178Z,45.23
2019-03-22T05:11:16.514Z,39.43
2019-03-22T05:13:50.390Z,43.63
2019-03-22T05:16:23.691Z,39.30
2019-03-22T05:18:56.502Z,40.10
2019-03-22T05:21:30.755Z,41.90
2019-03-22T05:24:04.605Z,41.73
2019-03-22T05:26:38.095Z,41.13
2019-03-22T05:29:11.914Z,39.37
2019-03-22T05:32:00.084Z,37.53
2019-03-22T05:34:30.808Z,42.73
2019-03-22T05:37:01.631Z,45.00
2019-03-22T05:39:33.419Z,49.53
2019-03-22T05:42:04.436Z,50.70
2019-03-22T05:44:35.371Z,48.23
2019-03-22T05:47:07.417Z,37.90
2019-03-22T05:49:38.218Z,43.37
2019-03-22T05:52:09.135Z,39.90
2019-03-22T05:54:39.943Z,43.97
2019-03-22T05:57:13.641Z,39.90
2019-03-22T05:59:43.472Z,41.40
2019-03-22T06:02:14.280Z,38.80
2019-03-22T06:04:45.095Z,34.50
2019-03-22T06:07:15.938Z,32.83
2019-03-22T06:09:46.853Z,35.97
2019-03-22T06:12:18.746Z,39.80
2019-03-22T06:14:49.728Z,41.40
2019-03-22T06:17:21.040Z,36.10
2019-03-22T06:19:51.821Z,35.57
2019-03-22T06:22:22.724Z,35.60
2019-03-22T06:24:53.490Z,33.97
2019-03-22T06:27:24.286Z,34.07
2019-03-22T06:29:55.059Z,33.80
2019-03-22T06:32:25.943Z,34.67
2019-03-22T06:34:56.733Z,38.70
2019-03-22T06:37:28.544Z,38.47
2019-03-22T06:39:59.289Z,33.27
2019-03-22T06:42:30.140Z,35.20
2019-03-22T06:45:00.981Z,39.83
2019-03-22T06:47:31.753Z,37.80
2019-03-22T06:50:02.512Z,31.53
2019-03-22T06:52:33.397Z,33.27
2019-03-22T06:55:04.156Z,29.93
2019-03-22T06:57:34.976Z,32.27
2019-03-22T07:00:07.679Z,31.20
2019-03-22T07:02:38.554Z,33.00
2019-03-22T07:05:09.509Z,33.37
2019-03-22T07:07:40.465Z,32.10
2019-03-22T07:10:12.337Z,32.40
2019-03-22T07:12:43.153Z,35.20
2019-03-22T07:15:15.030Z,32.23
2019-03-22T07:17:45.913Z,30.27
2019-03-22T07:20:16.758Z,30.37
2019-03-22T07:22:47.622Z,30.40
2019-03-22T07:25:18.457Z,34.17
2019-03-22T07:27:49.376Z,34.17
2019-03-22T07:30:20.253Z,33.43
2019-03-22T07:32:51.284Z,30.17
2019-03-22T07:35:22.063Z,34.63
2019-03-22T07:37:52.892Z,37.40
2019-03-22T07:40:23.671Z,32.63
2019-03-22T07:42:54.510Z,35.07
2019-03-22T07:45:25.271Z,31.17
2019-03-22T07:47:56.148Z,33.80
2019-03-22T07:50:26.890Z,30.20
2019-03-22T07:52:57.732Z,32.77
2019-03-22T07:55:28.522Z,28.40
2019-03-22T07:57:59.297Z,34.30
2019-03-22T08:00:31.295Z,29.10
2019-03-22T08:03:02.611Z,33.77
2019-03-22T08:05:33.402Z,30.57
2019-03-22T08:08:04.382Z,32.37
2019-03-22T08:10:36.621Z,33.83
2019-03-22T08:13:07.459Z,30.30
2019-03-22T08:15:38.296Z,31.60
2019-03-22T08:18:09.283Z,34.63
2019-03-22T08:20:41.446Z,35.43
2019-03-22T08:23:25.152Z,34.83
2019-03-22T08:25:57.009Z,35.07
2019-03-22T08:28:27.761Z,33.83
2019-03-22T08:30:58.591Z,36.53
2019-03-22T08:33:29.633Z,32.87
2019-03-22T08:36:00.571Z,37.17
2019-03-22T08:38:31.390Z,36.27
2019-03-22T08:41:02.188Z,40.33
2019-03-22T08:43:33.053Z,35.53
2019-03-22T08:46:03.810Z,34.60
2019-03-22T08:48:34.764Z,44.67
2019-03-22T08:51:05.661Z,42.80
2019-03-22T08:53:36.522Z,40.30
2019-03-22T08:56:08.596Z,44.87
2019-03-22T08:58:39.562Z,38.43
2019-03-22T09:01:10.523Z,41.63
2019-03-22T09:03:41.565Z,44.67
2019-03-22T09:06:14.817Z,43.97
2019-03-22T09:08:47.888Z,42.17
2019-03-22T09:11:18.346Z,40.50
2019-03-22T09:13:49.426Z,40.77
2019-03-22T09:16:20.171Z,42.97
2019-03-22T09:18:51.093Z,45.37
2019-03-22T09:21:22.036Z,46.70
2019-03-22T09:23:53.915Z,45.33
2019-03-22T09:26:24.763Z,47.50
2019-03-22T09:28:55.675Z,43.03
2019-03-22T09:31:26.441Z,42.47
2019-03-22T09:33:58.839Z,47.27
2019-03-22T09:36:30.500Z,49.83
2019-03-22T09:39:03.115Z,57.77
2019-03-22T09:41:36.111Z,51.90
2019-03-22T09:44:07.641Z,48.27
2019-03-22T09:46:38.447Z,52.13
2019-03-22T09:49:09.262Z,56.00
2019-03-22T09:51:40.095Z,53.60
2019-03-22T09:54:11.324Z,57.70
2019-03-22T09:56:47.222Z,54.57
2019-03-22T09:59:16.358Z,60.40
2019-03-22T10:01:47.568Z,54.70
2019-03-22T10:04:20.183Z,53.87
2019-03-22T10:06:51.081Z,56.80
2019-03-22T10:09:22.010Z,52.97
2019-03-22T10:11:55.753Z,53.53
2019-03-22T10:14:26.613Z,53.50
2019-03-22T10:16:57.493Z,47.07
2019-03-22T10:19:29.550Z,54.10
2019-03-22T10:22:00.466Z,51.17
2019-03-22T10:24:31.248Z,54.33
2019-03-22T10:27:05.197Z,53.47
2019-03-22T10:29:36.381Z,49.97
2019-03-22T10:32:07.212Z,51.97
2019-03-22T10:34:39.744Z,53.23
2019-03-22T10:37:10.781Z,51.63
2019-03-22T10:39:42.771Z,51.10
2019-03-22T10:42:13.678Z,55.90
2019-03-22T10:44:49.801Z,52.57
2019-03-22T10:47:21.354Z,54.20
2019-03-22T10:49:52.462Z,56.40
2019-03-22T10:52:23.298Z,53.50
2019-03-22T10:54:54.245Z,48.97
2019-03-22T10:57:25.017Z,56.77
2019-03-22T10:59:57.497Z,56.07
2019-03-22T11:02:28.826Z,52.77
2019-03-22T11:04:59.879Z,55.77
2019-03-22T11:07:32.031Z,53.33
2019-03-22T11:10:02.991Z,48.33
2019-03-22T11:12:33.768Z,50.47
2019-03-22T11:15:05.002Z,53.57
2019-03-22T11:17:35.923Z,48.90
2019-03-22T11:20:09.375Z,53.63
2019-03-22T11:22:40.354Z,51.20
2019-03-22T11:25:11.459Z,50.33
2019-03-22T11:27:42.362Z,53.03
2019-03-22T11:30:15.399Z,48.23
2019-03-22T11:32:46.229Z,46.13
2019-03-22T11:35:17.114Z,47.23
2019-03-22T11:37:47.937Z,46.83
2019-03-22T11:40:20.868Z,51.57
2019-03-22T11:42:53.861Z,47.53
2019-03-22T11:45:25.519Z,44.50
2019-03-22T11:47:56.287Z,45.43
2019-03-22T11:50:29.029Z,43.67
2019-03-22T11:53:01.054Z,41.77
2019-03-22T11:55:31.898Z,34.33
2019-03-22T11:58:04.509Z,36.57
2019-03-22T12:00:35.390Z,42.00
2019-03-22T12:03:07.031Z,36.50
2019-03-22T12:05:40.648Z,34.60
2019-03-22T12:08:13.941Z,41.50
2019-03-22T12:10:46.255Z,41.37
2019-03-22T12:13:17.038Z,42.90
2019-03-22T12:15:47.948Z,34.70
2019-03-22T12:18:19.754Z,30.67
2019-03-22T12:20:51.267Z,28.33
2019-03-22T12:23:22.147Z,29.07
2019-03-22T12:25:55.450Z,23.60
2019-03-22T12:28:26.265Z,26.67
2019-03-22T12:30:59.755Z,27.33
2019-03-22T12:33:30.530Z,18.43
2019-03-22T12:36:02.539Z,11.13
2019-03-22T12:38:33.402Z,12.70
2019-03-22T12:41:04.269Z,17.63
2019-03-22T12:43:36.041Z,15.17
2019-03-22T12:46:07.029Z,17.37
2019-03-22T12:48:37.836Z,20.37
2019-03-22T12:51:08.986Z,19.80
2019-03-22T12:53:39.812Z,21.43
2019-03-22T12:56:10.714Z,17.93
2019-03-22T12:58:41.547Z,15.67
2019-03-22T13:01:12.481Z,35.53
2019-03-22T13:03:43.343Z,29.23
2019-03-22T13:06:21.764Z,27.47
2019-03-22T13:08:53.000Z,28.77
2019-03-22T13:11:23.894Z,25.13
2019-03-22T13:13:55.834Z,28.10
2019-03-22T13:16:28.059Z,27.27
2019-03-22T13:19:00.035Z,23.33
2019-03-22T13:21:30.994Z,25.40
2019-03-22T13:24:02.748Z,28.03
2019-03-22T13:26:34.924Z,25.93
2019-03-22T13:29:05.744Z,26.73
2019-03-22T13:31:36.802Z,31.73
2019-03-22T13:34:11.656Z,25.80
2019-03-22T13:36:42.909Z,27.20
2019-03-22T13:39:14.140Z,22.47
2019-03-22T13:41:44.933Z,25.63
2019-03-22T13:44:15.763Z,25.87
2019-03-22T13:46:49.999Z,19.13
2019-03-22T13:49:21.259Z,17.47
2019-03-22T13:51:53.320Z,33.67
2019-03-22T13:54:24.239Z,18.17
2019-03-22T13:56:55.388Z,21.20
2019-03-22T13:59:26.225Z,21.70
2019-03-22T14:01:57.431Z,18.50
2019-03-22T14:04:29.766Z,20.20
2019-03-22T14:07:00.606Z,19.83
2019-03-22T14:09:32.387Z,22.07
2019-03-22T14:12:03.185Z,16.63
2019-03-22T14:14:36.107Z,18.17
2019-03-22T14:17:06.974Z,19.93
2019-03-22T14:19:39.765Z,16.40
2019-03-22T14:22:11.457Z,22.17
2019-03-22T14:24:42.248Z,22.93
2019-03-22T14:27:13.103Z,23.57
2019-03-22T14:29:43.937Z,28.80
2019-03-22T14:32:14.776Z,34.60
2019-03-22T14:34:45.530Z,29.73
2019-03-22T14:37:16.599Z,33.60
2019-03-22T14:39:47.378Z,35.33
2019-03-22T14:42:18.221Z,33.27
2019-03-22T14:44:48.982Z,33.83
2019-03-22T14:47:19.841Z,37.07
2019-03-22T14:49:50.739Z,32.77
2019-03-22T14:52:21.567Z,36.50
2019-03-22T14:54:53.473Z,39.13
2019-03-22T14:57:24.585Z,28.87
2019-03-22T14:59:59.162Z,28.40
2019-03-22T15:02:30.135Z,39.17
2019-03-22T15:05:01.128Z,40.00
2019-03-22T15:07:32.083Z,35.73
2019-03-22T15:10:05.128Z,38.17
2019-03-22T15:12:36.086Z,42.33
2019-03-22T15:15:26.788Z,37.63
2019-03-22T15:18:25.877Z,37.33
2019-03-22T15:21:22.760Z,38.97
2019-03-22T15:24:12.647Z,32.33
2019-03-22T15:27:00.335Z,32.07
2019-03-22T15:30:10.873Z,39.70
2019-03-22T15:32:59.698Z,33.57
2019-03-22T15:35:52.270Z,30.60
2019-03-22T15:38:43.339Z,28.07
2019-03-22T15:41:14.879Z,27.07
2019-03-22T15:43:46.764Z,25.47
2019-03-22T15:46:17.675Z,30.53
2019-03-22T15:48:48.456Z,27.47
2019-03-22T15:51:19.256Z,26.60
2019-03-22T15:53:50.054Z,29.23
2019-03-22T15:56:20.953Z,27.70
2019-03-22T15:58:51.688Z,30.37
2019-03-22T16:01:22.527Z,26.87
2019-03-22T16:03:54.328Z,29.33
2019-03-22T16:06:25.680Z,28.47
2019-03-22T16:08:56.538Z,27.63
2019-03-22T16:11:27.551Z,31.70
2019-03-22T16:13:59.845Z,30.20
2019-03-22T16:16:30.702Z,32.80
2019-03-22T16:19:01.449Z,33.33
2019-03-22T16:21:34.589Z,33.07
2019-03-22T16:24:05.526Z,33.47
2019-03-22T16:26:36.512Z,33.40
2019-03-22T16:29:07.466Z,31.13
2019-03-22T16:31:38.279Z,33.30
2019-03-22T16:34:09.176Z,27.97
2019-03-22T16:36:39.942Z,31.67
2019-03-22T16:39:10.750Z,30.77
2019-03-22T16:41:41.782Z,31.33
2019-03-22T16:44:12.699Z,32.43
2019-03-22T16:46:43.500Z,27.43
2019-03-22T16:49:14.309Z,31.20
2019-03-22T16:51:45.167Z,34.73
2019-03-22T16:54:15.967Z,31.87
2019-03-22T16:56:47.039Z,25.57
2019-03-22T16:59:17.799Z,27.57
2019-03-22T17:01:54.124Z,28.80
2019-03-22T17:07:33.305Z,30.30
2019-03-22T17:10:09.736Z,31.90
2019-03-22T17:13:12.973Z,28.93
2019-03-22T17:15:49.015Z,32.57
2019-03-22T17:18:20.465Z,29.30
2019-03-22T17:20:51.347Z,31.73
2019-03-22T17:23:22.258Z,28.70
2019-03-22T17:25:53.095Z,30.23
2019-03-22T17:28:24.032Z,28.17
2019-03-22T17:30:54.832Z,31.90
2019-03-22T17:33:43.275Z,29.93
2019-03-22T17:36:36.398Z,27.67
2019-03-22T17:39:17.364Z,27.97
2019-03-22T17:41:57.124Z,30.37
2019-03-22T17:44:27.995Z,29.87
2019-03-22T17:46:58.792Z,27.40
2019-03-22T17:49:30.741Z,32.03
2019-03-22T17:52:01.570Z,31.90
2019-03-22T17:54:32.444Z,32.60
2019-03-22T17:57:18.181Z,33.93
2019-03-22T17:59:55.829Z,30.30
2019-03-22T18:03:00.063Z,33.70
2019-03-22T18:05:35.481Z,32.90
2019-03-22T18:08:21.761Z,35.33
2019-03-22T18:10:53.774Z,35.03
2019-03-22T18:13:24.590Z,35.40
2019-03-22T18:15:55.561Z,38.00
2019-03-22T18:18:26.475Z,39.07
2019-03-22T18:21:16.235Z,36.33
2019-03-22T18:23:57.239Z,39.00
2019-03-22T18:29:13.909Z,41.50
2019-03-22T18:31:51.339Z,40.83
2019-03-22T18:34:35.048Z,41.50
2019-03-22T18:37:18.609Z,38.27
2019-03-22T18:39:49.424Z,40.87
2019-03-22T18:42:20.166Z,43.97
2019-03-22T18:44:50.975Z,45.47
2019-03-22T18:47:21.889Z,42.83
2019-03-22T18:49:52.644Z,40.40
2019-03-22T18:52:25.796Z,40.13
2019-03-22T18:55:18.115Z,40.97
2019-03-22T18:57:54.260Z,42.27
2019-03-22T19:00:30.351Z,47.30
2019-03-22T19:03:04.298Z,39.90
2019-03-22T19:05:38.852Z,43.37
2019-03-22T19:08:14.083Z,43.37
2019-03-22T19:10:45.120Z,43.13
2019-03-22T19:13:30.425Z,39.77
2019-03-22T19:15:59.559Z,45.33
2019-03-22T19:18:32.856Z,43.77
2019-03-22T19:21:24.834Z,47.30
2019-03-22T19:24:03.500Z,48.10
2019-03-22T19:26:42.365Z,45.10
2019-03-22T19:29:30.436Z,45.93
2019-03-22T19:32:01.405Z,43.73
2019-03-22T19:34:54.338Z,47.23
2019-03-22T19:37:24.628Z,46.43
2019-03-22T19:39:55.394Z,46.73
2019-03-22T19:42:26.216Z,47.13
2019-03-22T19:44:57.028Z,43.87
2019-03-22T19:47:27.863Z,44.67
2019-03-22T19:50:00.424Z,45.37
2019-03-22T19:52:36.275Z,44.00
2019-03-22T19:55:07.973Z,46.30
2019-03-22T19:57:40.139Z,49.67
2019-03-22T20:00:11.874Z,47.73
2019-03-22T20:02:43.262Z,50.87
2019-03-22T20:05:18.229Z,46.63
2019-03-22T20:07:51.071Z,57.47
2019-03-22T20:10:49.398Z,50.10
2019-03-22T20:13:22.180Z,48.93
2019-03-22T20:16:05.319Z,50.90
2019-03-22T20:18:36.729Z,49.97
2019-03-22T20:21:09.786Z,50.83
2019-03-22T20:23:40.905Z,53.23
2019-03-22T20:26:25.531Z,54.67
2019-03-22T20:29:21.994Z,55.97
2019-03-22T20:31:49.375Z,51.77
2019-03-22T20:34:20.540Z,55.17
2019-03-22T20:36:51.374Z,55.07
2019-03-22T20:39:22.396Z,62.77
2019-03-22T20:41:54.643Z,53.00
2019-03-22T20:44:33.548Z,57.23
2019-03-22T20:46:57.960Z,59.30
2019-03-22T20:49:28.814Z,55.77
2019-03-22T20:51:59.621Z,62.50
2019-03-22T20:54:30.452Z,60.93
2019-03-22T20:57:01.476Z,59.33
2019-03-22T20:59:32.622Z,61.47
2019-03-22T21:02:03.499Z,62.93
2019-03-22T21:04:34.386Z,61.63
2019-03-22T21:07:05.359Z,55.17
2019-03-22T21:09:36.360Z,63.40
2019-03-22T21:12:09.588Z,59.37
2019-03-22T21:14:40.383Z,57.50
2019-03-22T21:17:11.183Z,57.80
2019-03-22T21:19:42.028Z,60.57
2019-03-22T21:22:12.860Z,57.33
2019-03-22T21:24:43.640Z,66.00
2019-03-22T21:27:15.752Z,66.17
2019-03-22T21:29:47.175Z,62.83
2019-03-22T21:32:19.228Z,58.73
2019-03-22T21:34:50.048Z,63.87
2019-03-22T21:37:22.165Z,56.40
2019-03-22T21:39:53.049Z,60.40
2019-03-22T21:42:24.960Z,61.20
2019-03-22T21:44:55.754Z,64.13
2019-03-22T21:47:27.151Z,67.30
2019-03-22T21:50:00.708Z,62.70
2019-03-22T21:52:31.612Z,62.47
2019-03-22T21:55:02.399Z,65.60
2019-03-22T21:57:33.225Z,67.47
2019-03-22T22:00:04.198Z,66.53
2019-03-22T22:02:36.561Z,61.63
2019-03-22T22:05:09.219Z,63.23
2019-03-22T22:07:40.446Z,73.07
2019-03-22T22:10:11.822Z,68.97
2019-03-22T22:12:43.039Z,69.33
2019-03-22T22:15:13.830Z,67.83
2019-03-22T22:17:47.214Z,70.17
2019-03-22T22:20:28.362Z,70.23
2019-03-22T22:22:51.992Z,74.63
2019-03-22T22:25:22.749Z,77.47
2019-03-22T22:27:53.548Z,75.37
2019-03-22T22:30:24.344Z,71.87
2019-03-22T22:32:56.243Z,78.30
2019-03-22T22:35:27.994Z,75.23
2019-03-22T22:37:58.817Z,74.97
2019-03-22T22:40:29.641Z,76.30
2019-03-22T22:43:00.420Z,72.93
2019-03-22T22:45:31.698Z,67.10
2019-03-22T22:48:02.558Z,67.93
2019-03-22T22:50:33.532Z,65.13
2019-03-22T22:53:04.302Z,64.67
2019-03-22T22:55:35.267Z,63.90
2019-03-22T22:58:06.392Z,62.23
2019-03-22T23:00:37.426Z,67.80
2019-03-22T23:03:08.348Z,53.57
2019-03-22T23:05:39.198Z,57.63
2019-03-22T23:08:12.484Z,59.97
2019-03-22T23:10:43.270Z,60.90
2019-03-22T23:13:14.309Z,57.47
2019-03-22T23:15:45.091Z,63.73
2019-03-22T23:18:15.854Z,56.33
2019-03-22T23:20:46.702Z,56.27
2019-03-22T23:23:17.720Z,55.40
2019-03-22T23:25:48.511Z,52.93
2019-03-22T23:28:19.273Z,48.40
2019-03-22T23:30:50.221Z,51.97
2019-03-22T23:33:21.039Z,53.50
2019-03-22T23:35:51.832Z,47.13
2019-03-22T23:38:22.822Z,53.70
2019-03-22T23:40:53.644Z,55.87
2019-03-22T23:43:24.476Z,55.63
2019-03-22T23:45:55.285Z,54.83
2019-03-22T23:48:26.085Z,59.83
2019-03-22T23:50:56.913Z,62.70
2019-03-22T23:53:28.120Z,64.20
2019-03-22T23:56:00.348Z,62.70
2019-03-22T23:58:32.252Z,63.97
